Soul City, North Carolina
Current Conditions -  °F | °C
As of 5:55 AM on Sunday 23 Nov 2014 (Local Time) from KHNZ Reporting Station
Clear Clear  
Wind Chill:   Ceiling: Unl
Heat Index:   Visibility: 10mi
Dew Point: -4°   Wind: 0mph
Humidity: 60%   Direction: NA
Pressure: 30.28"   Gusts: NA
Location:  36.4679°N, 78.2938°W
Report Text: KHNZ 231055Z AUTO 00000KT 10SM CLR 04/M04 A3028 RMK AO2 T00351036
Loading
Personal Weather Stations






























Interactive Weather Map New forecast layout! Learn more

10-Day Weather Forecast

Advertisements
Track Severe Weather on mobile